sensor_id;sensor_type;location;lat;lon;timestamp;temperature;humidity
30893;DHT22;17595;50.884;4.346;2024-01-30T00:01:15;13.10;99.90
30893;DHT22;17595;50.884;4.346;2024-01-30T00:03:41;13.10;99.90
30893;DHT22;17595;50.884;4.346;2024-01-30T00:06:08;13.20;99.90
30893;DHT22;17595;50.884;4.346;2024-01-30T00:08:34;13.20;99.90
30893;DHT22;17595;50.884;4.346;2024-01-30T00:10:59;13.10;99.90
30893;DHT22;17595;50.884;4.346;2024-01-30T00:13:26;13.20;99.90
30893;DHT22;17595;50.884;4.346;2024-01-30T00:15:51;13.10;99.90
30893;DHT22;17595;50.884;4.346;2024-01-30T00:18:17;13.10;99.90
30893;DHT22;17595;50.884;4.346;2024-01-30T00:20:44;13.10;99.90
30893;DHT22;17595;50.884;4.346;2024-01-30T00:23:09;13.00;99.90
30893;DHT22;17595;50.884;4.346;2024-01-30T00:25:35;13.10;99.90
30893;DHT22;17595;50.884;4.346;2024-01-30T00:28:01;13.10;99.90
30893;DHT22;17595;50.884;4.346;2024-01-30T00:30:26;13.10;99.90
30893;DHT22;17595;50.884;4.346;2024-01-30T00:32:53;13.10;99.90
30893;DHT22;17595;50.884;4.346;2024-01-30T00:35:18;13.10;99.90
30893;DHT22;17595;50.884;4.346;2024-01-30T00:37:44;13.20;99.90
30893;DHT22;17595;50.884;4.346;2024-01-30T00:40:10;13.10;99.90
30893;DHT22;17595;50.884;4.346;2024-01-30T00:42:41;13.10;99.90
30893;DHT22;17595;50.884;4.346;2024-01-30T00:45:14;13.10;99.90
30893;DHT22;17595;50.884;4.346;2024-01-30T00:47:40;13.10;99.90
30893;DHT22;17595;50.884;4.346;2024-01-30T00:50:06;13.10;99.90
30893;DHT22;17595;50.884;4.346;2024-01-30T00:52:32;13.20;99.90
30893;DHT22;17595;50.884;4.346;2024-01-30T00:54:59;13.20;99.90
30893;DHT22;17595;50.884;4.346;2024-01-30T00:57:25;13.20;99.90
30893;DHT22;17595;50.884;4.346;2024-01-30T00:59:50;13.20;99.90
30893;DHT22;17595;50.884;4.346;2024-01-30T01:02:16;13.20;99.90
30893;DHT22;17595;50.884;4.346;2024-01-30T01:04:43;13.20;99.90
30893;DHT22;17595;50.884;4.346;2024-01-30T01:07:10;13.20;99.90
30893;DHT22;17595;50.884;4.346;2024-01-30T01:09:36;13.20;99.90
30893;DHT22;17595;50.884;4.346;2024-01-30T01:12:02;13.30;99.90
30893;DHT22;17595;50.884;4.346;2024-01-30T01:14:28;13.20;99.90
30893;DHT22;17595;50.884;4.346;2024-01-30T01:16:54;13.20;99.90
30893;DHT22;17595;50.884;4.346;2024-01-30T01:19:19;13.30;99.90
30893;DHT22;17595;50.884;4.346;2024-01-30T01:21:45;13.20;99.90
30893;DHT22;17595;50.884;4.346;2024-01-30T01:24:10;13.30;99.90
30893;DHT22;17595;50.884;4.346;2024-01-30T01:26:36;13.20;99.90
30893;DHT22;17595;50.884;4.346;2024-01-30T01:29:02;13.20;99.90
30893;DHT22;17595;50.884;4.346;2024-01-30T01:31:38;13.20;99.90
30893;DHT22;17595;50.884;4.346;2024-01-30T01:34:10;13.30;99.90
30893;DHT22;17595;50.884;4.346;2024-01-30T01:36:36;13.20;99.90
30893;DHT22;17595;50.884;4.346;2024-01-30T01:39:02;13.10;99.90
30893;DHT22;17595;50.884;4.346;2024-01-30T01:41:32;13.10;99.90
30893;DHT22;17595;50.884;4.346;2024-01-30T01:43:58;13.10;99.90
30893;DHT22;17595;50.884;4.346;2024-01-30T01:46:29;13.10;99.90
30893;DHT22;17595;50.884;4.346;2024-01-30T01:48:55;13.20;99.90
30893;DHT22;17595;50.884;4.346;2024-01-30T01:51:23;13.20;99.90
30893;DHT22;17595;50.884;4.346;2024-01-30T01:53:50;13.30;99.90
30893;DHT22;17595;50.884;4.346;2024-01-30T01:56:16;13.20;99.90
30893;DHT22;17595;50.884;4.346;2024-01-30T01:58:44;13.30;99.90
30893;DHT22;17595;50.884;4.346;2024-01-30T02:01:11;13.30;99.90
30893;DHT22;17595;50.884;4.346;2024-01-30T02:03:38;13.30;99.90
30893;DHT22;17595;50.884;4.346;2024-01-30T02:06:04;13.30;99.90
30893;DHT22;17595;50.884;4.346;2024-01-30T02:08:30;13.30;99.90
30893;DHT22;17595;50.884;4.346;2024-01-30T02:10:56;13.30;99.90
30893;DHT22;17595;50.884;4.346;2024-01-30T02:13:22;13.30;99.90
30893;DHT22;17595;50.884;4.346;2024-01-30T02:15:51;13.30;99.90
30893;DHT22;17595;50.884;4.346;2024-01-30T02:18:17;13.30;99.90
30893;DHT22;17595;50.884;4.346;2024-01-30T02:20:43;13.20;99.90
30893;DHT22;17595;50.884;4.346;2024-01-30T02:23:09;13.30;99.90
30893;DHT22;17595;50.884;4.346;2024-01-30T02:25:40;13.30;99.90
30893;DHT22;17595;50.884;4.346;2024-01-30T02:28:12;13.30;99.90
30893;DHT22;17595;50.884;4.346;2024-01-30T02:30:39;13.40;99.90
30893;DHT22;17595;50.884;4.346;2024-01-30T02:33:05;13.40;99.90
30893;DHT22;17595;50.884;4.346;2024-01-30T02:35:30;13.40;99.90
30893;DHT22;17595;50.884;4.346;2024-01-30T02:37:56;13.30;99.90
30893;DHT22;17595;50.884;4.346;2024-01-30T02:40:22;13.30;99.90
30893;DHT22;17595;50.884;4.346;2024-01-30T02:42:47;13.40;99.90
30893;DHT22;17595;50.884;4.346;2024-01-30T02:45:13;13.40;99.90
30893;DHT22;17595;50.884;4.346;2024-01-30T02:47:40;13.40;99.90
30893;DHT22;17595;50.884;4.346;2024-01-30T02:50:06;13.40;99.90
30893;DHT22;17595;50.884;4.346;2024-01-30T02:52:32;13.50;99.90
30893;DHT22;17595;50.884;4.346;2024-01-30T02:54:58;13.50;99.90
30893;DHT22;17595;50.884;4.346;2024-01-30T02:57:23;13.40;99.90
30893;DHT22;17595;50.884;4.346;2024-01-30T02:59:49;13.40;99.90
30893;DHT22;17595;50.884;4.346;2024-01-30T03:02:16;13.40;99.90
30893;DHT22;17595;50.884;4.346;2024-01-30T03:04:41;13.40;99.90
30893;DHT22;17595;50.884;4.346;2024-01-30T03:07:08;13.40;99.90
30893;DHT22;17595;50.884;4.346;2024-01-30T03:09:33;13.40;99.90
30893;DHT22;17595;50.884;4.346;2024-01-30T03:11:59;13.40;99.90
30893;DHT22;17595;50.884;4.346;2024-01-30T03:14:25;13.30;99.90
30893;DHT22;17595;50.884;4.346;2024-01-30T03:16:50;13.40;99.90
30893;DHT22;17595;50.884;4.346;2024-01-30T03:19:16;13.40;99.90
30893;DHT22;17595;50.884;4.346;2024-01-30T03:21:42;13.40;99.90
30893;DHT22;17595;50.884;4.346;2024-01-30T03:24:08;13.50;99.90
30893;DHT22;17595;50.884;4.346;2024-01-30T03:26:34;13.50;99.90
30893;DHT22;17595;50.884;4.346;2024-01-30T03:29:00;13.50;99.90
30893;DHT22;17595;50.884;4.346;2024-01-30T03:31:25;13.50;99.90
30893;DHT22;17595;50.884;4.346;2024-01-30T03:33:51;13.50;99.90
30893;DHT22;17595;50.884;4.346;2024-01-30T03:36:17;13.40;99.90
30893;DHT22;17595;50.884;4.346;2024-01-30T03:38:42;13.40;99.90
30893;DHT22;17595;50.884;4.346;2024-01-30T03:41:08;13.40;99.90
30893;DHT22;17595;50.884;4.346;2024-01-30T03:43:35;13.30;99.90
30893;DHT22;17595;50.884;4.346;2024-01-30T03:46:01;13.30;99.90
30893;DHT22;17595;50.884;4.346;2024-01-30T03:48:27;13.30;99.90
30893;DHT22;17595;50.884;4.346;2024-01-30T03:50:53;13.20;99.90
30893;DHT22;17595;50.884;4.346;2024-01-30T03:53:18;13.30;99.90
30893;DHT22;17595;50.884;4.346;2024-01-30T03:55:44;13.30;99.90
30893;DHT22;17595;50.884;4.346;2024-01-30T03:58:10;13.20;99.90
30893;DHT22;17595;50.884;4.346;2024-01-30T04:00:35;13.10;99.90
30893;DHT22;17595;50.884;4.346;2024-01-30T04:03:01;13.10;99.90
30893;DHT22;17595;50.884;4.346;2024-01-30T04:05:26;13.10;99.90
30893;DHT22;17595;50.884;4.346;2024-01-30T04:07:52;13.10;99.90
30893;DHT22;17595;50.884;4.346;2024-01-30T04:10:18;13.20;99.90
30893;DHT22;17595;50.884;4.346;2024-01-30T04:12:43;13.20;99.90
30893;DHT22;17595;50.884;4.346;2024-01-30T04:15:09;13.20;99.90
30893;DHT22;17595;50.884;4.346;2024-01-30T04:17:35;13.20;99.90
30893;DHT22;17595;50.884;4.346;2024-01-30T04:20:01;13.20;99.90
30893;DHT22;17595;50.884;4.346;2024-01-30T04:22:26;13.20;99.90
30893;DHT22;17595;50.884;4.346;2024-01-30T04:24:52;13.20;99.90
30893;DHT22;17595;50.884;4.346;2024-01-30T04:27:18;13.30;99.90
30893;DHT22;17595;50.884;4.346;2024-01-30T04:29:43;13.30;99.90
30893;DHT22;17595;50.884;4.346;2024-01-30T04:32:09;13.30;99.90
30893;DHT22;17595;50.884;4.346;2024-01-30T04:34:36;13.30;99.90
30893;DHT22;17595;50.884;4.346;2024-01-30T04:37:02;13.30;99.90
30893;DHT22;17595;50.884;4.346;2024-01-30T04:39:28;13.20;99.90
30893;DHT22;17595;50.884;4.346;2024-01-30T04:41:53;13.20;99.90
30893;DHT22;17595;50.884;4.346;2024-01-30T04:44:19;13.20;99.90
30893;DHT22;17595;50.884;4.346;2024-01-30T04:46:45;13.30;99.90
30893;DHT22;17595;50.884;4.346;2024-01-30T04:49:11;13.30;99.90
30893;DHT22;17595;50.884;4.346;2024-01-30T04:51:36;13.30;99.90
30893;DHT22;17595;50.884;4.346;2024-01-30T04:54:03;13.30;99.90
30893;DHT22;17595;50.884;4.346;2024-01-30T04:56:29;13.40;99.90
30893;DHT22;17595;50.884;4.346;2024-01-30T04:58:54;13.40;99.90
30893;DHT22;17595;50.884;4.346;2024-01-30T05:01:20;13.50;99.90
30893;DHT22;17595;50.884;4.346;2024-01-30T05:03:45;13.40;99.90
30893;DHT22;17595;50.884;4.346;2024-01-30T05:06:11;13.40;99.90
30893;DHT22;17595;50.884;4.346;2024-01-30T05:08:37;13.50;99.90
30893;DHT22;17595;50.884;4.346;2024-01-30T05:11:04;13.60;99.90
30893;DHT22;17595;50.884;4.346;2024-01-30T05:13:31;13.60;99.90
30893;DHT22;17595;50.884;4.346;2024-01-30T05:15:56;13.60;99.90
30893;DHT22;17595;50.884;4.346;2024-01-30T05:18:22;13.70;99.90
30893;DHT22;17595;50.884;4.346;2024-01-30T05:20:49;13.60;99.90
30893;DHT22;17595;50.884;4.346;2024-01-30T05:23:15;13.60;99.90
30893;DHT22;17595;50.884;4.346;2024-01-30T05:25:41;13.50;99.90
30893;DHT22;17595;50.884;4.346;2024-01-30T05:28:06;13.50;99.90
30893;DHT22;17595;50.884;4.346;2024-01-30T05:30:32;13.60;99.90
30893;DHT22;17595;50.884;4.346;2024-01-30T05:32:57;13.60;99.90
30893;DHT22;17595;50.884;4.346;2024-01-30T05:35:23;13.50;99.90
30893;DHT22;17595;50.884;4.346;2024-01-30T05:37:49;13.50;99.90
30893;DHT22;17595;50.884;4.346;2024-01-30T05:40:16;13.50;99.90
30893;DHT22;17595;50.884;4.346;2024-01-30T05:42:42;13.50;99.90
30893;DHT22;17595;50.884;4.346;2024-01-30T05:45:08;13.50;99.90
30893;DHT22;17595;50.884;4.346;2024-01-30T05:47:36;13.60;99.90
30893;DHT22;17595;50.884;4.346;2024-01-30T05:50:02;13.60;99.90
30893;DHT22;17595;50.884;4.346;2024-01-30T05:52:28;13.60;99.90
30893;DHT22;17595;50.884;4.346;2024-01-30T05:54:54;13.60;99.90
30893;DHT22;17595;50.884;4.346;2024-01-30T05:57:20;13.60;99.90
30893;DHT22;17595;50.884;4.346;2024-01-30T05:59:46;13.60;99.90
30893;DHT22;17595;50.884;4.346;2024-01-30T06:02:13;13.70;99.90
30893;DHT22;17595;50.884;4.346;2024-01-30T06:04:39;13.70;99.90
30893;DHT22;17595;50.884;4.346;2024-01-30T06:07:05;13.70;99.90
30893;DHT22;17595;50.884;4.346;2024-01-30T06:09:32;13.60;99.90
30893;DHT22;17595;50.884;4.346;2024-01-30T06:11:57;13.60;99.90
30893;DHT22;17595;50.884;4.346;2024-01-30T06:14:23;13.60;99.90
30893;DHT22;17595;50.884;4.346;2024-01-30T06:16:49;13.60;99.90
30893;DHT22;17595;50.884;4.346;2024-01-30T06:19:15;13.60;99.90
30893;DHT22;17595;50.884;4.346;2024-01-30T06:21:41;13.60;99.90
30893;DHT22;17595;50.884;4.346;2024-01-30T06:24:06;13.60;99.90
30893;DHT22;17595;50.884;4.346;2024-01-30T06:26:32;13.60;99.90
30893;DHT22;17595;50.884;4.346;2024-01-30T06:28:58;13.60;99.90
30893;DHT22;17595;50.884;4.346;2024-01-30T06:31:23;13.50;99.90
30893;DHT22;17595;50.884;4.346;2024-01-30T06:33:49;13.40;99.90
30893;DHT22;17595;50.884;4.346;2024-01-30T06:36:15;13.40;99.90
30893;DHT22;17595;50.884;4.346;2024-01-30T06:38:41;13.40;99.90
30893;DHT22;17595;50.884;4.346;2024-01-30T06:41:06;13.50;99.90
30893;DHT22;17595;50.884;4.346;2024-01-30T06:43:32;13.50;99.90
30893;DHT22;17595;50.884;4.346;2024-01-30T06:45:59;13.40;99.90
30893;DHT22;17595;50.884;4.346;2024-01-30T06:48:25;13.40;99.90
30893;DHT22;17595;50.884;4.346;2024-01-30T06:50:54;13.40;99.90
30893;DHT22;17595;50.884;4.346;2024-01-30T06:53:20;13.50;99.90
30893;DHT22;17595;50.884;4.346;2024-01-30T06:55:45;13.40;99.90
30893;DHT22;17595;50.884;4.346;2024-01-30T06:58:11;13.50;99.90
30893;DHT22;17595;50.884;4.346;2024-01-30T07:00:37;13.50;99.90
30893;DHT22;17595;50.884;4.346;2024-01-30T07:03:03;13.60;99.90
30893;DHT22;17595;50.884;4.346;2024-01-30T07:05:29;13.60;99.90
30893;DHT22;17595;50.884;4.346;2024-01-30T07:07:54;13.50;99.90
30893;DHT22;17595;50.884;4.346;2024-01-30T07:10:20;13.50;99.90
30893;DHT22;17595;50.884;4.346;2024-01-30T07:12:46;13.40;99.90
30893;DHT22;17595;50.884;4.346;2024-01-30T07:15:12;13.50;99.90
30893;DHT22;17595;50.884;4.346;2024-01-30T07:17:40;13.50;99.90
30893;DHT22;17595;50.884;4.346;2024-01-30T07:20:06;13.60;99.90
30893;DHT22;17595;50.884;4.346;2024-01-30T07:22:32;13.70;99.90
30893;DHT22;17595;50.884;4.346;2024-01-30T07:24:59;13.70;99.90
30893;DHT22;17595;50.884;4.346;2024-01-30T07:27:24;13.70;99.90
30893;DHT22;17595;50.884;4.346;2024-01-30T07:29:50;13.60;99.90
30893;DHT22;17595;50.884;4.346;2024-01-30T07:32:16;13.70;99.90
30893;DHT22;17595;50.884;4.346;2024-01-30T07:34:41;13.70;99.90
30893;DHT22;17595;50.884;4.346;2024-01-30T07:37:07;13.60;99.90
30893;DHT22;17595;50.884;4.346;2024-01-30T07:39:34;13.70;99.90
30893;DHT22;17595;50.884;4.346;2024-01-30T07:42:00;13.70;99.90
30893;DHT22;17595;50.884;4.346;2024-01-30T07:44:25;13.70;99.90
30893;DHT22;17595;50.884;4.346;2024-01-30T07:46:51;13.80;99.90
30893;DHT22;17595;50.884;4.346;2024-01-30T07:49:17;13.80;99.90
30893;DHT22;17595;50.884;4.346;2024-01-30T07:51:43;13.80;99.90
30893;DHT22;17595;50.884;4.346;2024-01-30T07:54:15;13.80;99.90
30893;DHT22;17595;50.884;4.346;2024-01-30T07:56:41;13.90;99.90
30893;DHT22;17595;50.884;4.346;2024-01-30T07:59:10;13.90;99.90
30893;DHT22;17595;50.884;4.346;2024-01-30T08:01:36;13.90;99.90
30893;DHT22;17595;50.884;4.346;2024-01-30T08:04:02;13.90;99.90
30893;DHT22;17595;50.884;4.346;2024-01-30T08:06:28;13.90;99.90
30893;DHT22;17595;50.884;4.346;2024-01-30T08:08:53;13.60;99.90
30893;DHT22;17595;50.884;4.346;2024-01-30T08:11:22;13.60;99.90
30893;DHT22;17595;50.884;4.346;2024-01-30T08:13:52;13.60;99.90
30893;DHT22;17595;50.884;4.346;2024-01-30T08:16:18;13.60;99.90
30893;DHT22;17595;50.884;4.346;2024-01-30T08:18:43;13.60;99.90
30893;DHT22;17595;50.884;4.346;2024-01-30T08:21:09;13.70;99.90
30893;DHT22;17595;50.884;4.346;2024-01-30T08:23:35;13.80;99.90
30893;DHT22;17595;50.884;4.346;2024-01-30T08:26:01;13.90;99.90
30893;DHT22;17595;50.884;4.346;2024-01-30T08:28:26;14.00;99.90
30893;DHT22;17595;50.884;4.346;2024-01-30T08:30:52;14.10;99.90
30893;DHT22;17595;50.884;4.346;2024-01-30T08:33:18;14.10;99.90
30893;DHT22;17595;50.884;4.346;2024-01-30T08:35:44;14.20;99.90
30893;DHT22;17595;50.884;4.346;2024-01-30T08:38:09;14.20;99.90
30893;DHT22;17595;50.884;4.346;2024-01-30T08:40:37;14.30;99.90
30893;DHT22;17595;50.884;4.346;2024-01-30T08:43:03;14.30;99.90
30893;DHT22;17595;50.884;4.346;2024-01-30T08:45:29;14.30;99.90
30893;DHT22;17595;50.884;4.346;2024-01-30T08:47:56;14.30;99.90
30893;DHT22;17595;50.884;4.346;2024-01-30T08:50:22;14.30;99.90
30893;DHT22;17595;50.884;4.346;2024-01-30T08:52:47;14.30;99.90
30893;DHT22;17595;50.884;4.346;2024-01-30T08:55:13;14.40;99.90
30893;DHT22;17595;50.884;4.346;2024-01-30T08:57:39;14.30;99.90
30893;DHT22;17595;50.884;4.346;2024-01-30T09:00:05;14.30;99.90
30893;DHT22;17595;50.884;4.346;2024-01-30T09:02:32;14.20;99.90
30893;DHT22;17595;50.884;4.346;2024-01-30T09:04:58;14.20;99.90
30893;DHT22;17595;50.884;4.346;2024-01-30T09:07:24;14.10;99.90
30893;DHT22;17595;50.884;4.346;2024-01-30T09:09:49;14.10;99.90
30893;DHT22;17595;50.884;4.346;2024-01-30T09:12:15;14.10;99.90
30893;DHT22;17595;50.884;4.346;2024-01-30T09:14:41;14.10;99.90
30893;DHT22;17595;50.884;4.346;2024-01-30T09:17:07;14.00;99.90
30893;DHT22;17595;50.884;4.346;2024-01-30T09:19:33;14.00;99.90
30893;DHT22;17595;50.884;4.346;2024-01-30T09:21:59;14.00;99.90
30893;DHT22;17595;50.884;4.346;2024-01-30T09:24:26;14.00;99.90
30893;DHT22;17595;50.884;4.346;2024-01-30T09:26:52;14.10;99.90
30893;DHT22;17595;50.884;4.346;2024-01-30T09:29:17;14.10;99.90
30893;DHT22;17595;50.884;4.346;2024-01-30T09:31:46;14.20;99.90
30893;DHT22;17595;50.884;4.346;2024-01-30T09:34:12;14.20;99.90
30893;DHT22;17595;50.884;4.346;2024-01-30T09:36:38;14.10;99.90
30893;DHT22;17595;50.884;4.346;2024-01-30T09:39:04;14.10;99.90
30893;DHT22;17595;50.884;4.346;2024-01-30T09:41:32;14.00;99.90
30893;DHT22;17595;50.884;4.346;2024-01-30T09:44:00;14.00;99.90
30893;DHT22;17595;50.884;4.346;2024-01-30T09:46:28;13.90;99.90
30893;DHT22;17595;50.884;4.346;2024-01-30T09:48:57;13.80;99.90
30893;DHT22;17595;50.884;4.346;2024-01-30T09:51:24;13.80;99.90
30893;DHT22;17595;50.884;4.346;2024-01-30T09:53:50;13.80;99.90
30893;DHT22;17595;50.884;4.346;2024-01-30T09:56:16;13.90;99.90
30893;DHT22;17595;50.884;4.346;2024-01-30T09:58:42;13.80;99.90
30893;DHT22;17595;50.884;4.346;2024-01-30T10:01:08;13.70;99.90
30893;DHT22;17595;50.884;4.346;2024-01-30T10:03:33;13.80;99.90
30893;DHT22;17595;50.884;4.346;2024-01-30T10:06:01;13.90;99.90
30893;DHT22;17595;50.884;4.346;2024-01-30T10:08:27;13.80;99.90
30893;DHT22;17595;50.884;4.346;2024-01-30T10:10:52;13.90;99.90
30893;DHT22;17595;50.884;4.346;2024-01-30T10:13:18;13.90;99.90
30893;DHT22;17595;50.884;4.346;2024-01-30T10:15:44;14.00;99.90
30893;DHT22;17595;50.884;4.346;2024-01-30T10:18:10;13.90;99.90
30893;DHT22;17595;50.884;4.346;2024-01-30T10:20:36;14.00;99.90
30893;DHT22;17595;50.884;4.346;2024-01-30T10:23:02;13.90;99.90
30893;DHT22;17595;50.884;4.346;2024-01-30T10:25:30;13.90;99.90
30893;DHT22;17595;50.884;4.346;2024-01-30T10:27:56;13.90;99.90
30893;DHT22;17595;50.884;4.346;2024-01-30T10:30:23;13.80;99.90
30893;DHT22;17595;50.884;4.346;2024-01-30T10:32:49;13.80;99.90
30893;DHT22;17595;50.884;4.346;2024-01-30T10:35:15;13.90;99.90
30893;DHT22;17595;50.884;4.346;2024-01-30T10:37:43;13.80;99.90
30893;DHT22;17595;50.884;4.346;2024-01-30T10:40:13;14.00;99.90
30893;DHT22;17595;50.884;4.346;2024-01-30T10:42:42;14.10;99.90
30893;DHT22;17595;50.884;4.346;2024-01-30T10:45:10;14.00;99.90
30893;DHT22;17595;50.884;4.346;2024-01-30T10:47:40;14.00;99.90
30893;DHT22;17595;50.884;4.346;2024-01-30T10:50:07;13.90;99.90
30893;DHT22;17595;50.884;4.346;2024-01-30T10:52:34;14.00;99.90
30893;DHT22;17595;50.884;4.346;2024-01-30T10:55:00;13.90;99.90
30893;DHT22;17595;50.884;4.346;2024-01-30T10:57:27;13.90;99.90
30893;DHT22;17595;50.884;4.346;2024-01-30T11:00:04;13.80;99.90
30893;DHT22;17595;50.884;4.346;2024-01-30T11:02:32;13.40;99.90
30893;DHT22;17595;50.884;4.346;2024-01-30T11:04:59;13.20;99.90
30893;DHT22;17595;50.884;4.346;2024-01-30T11:07:29;13.10;99.90
30893;DHT22;17595;50.884;4.346;2024-01-30T11:12:24;12.80;99.90
30893;DHT22;17595;50.884;4.346;2024-01-30T11:15:10;12.80;99.90
30893;DHT22;17595;50.884;4.346;2024-01-30T11:17:54;12.80;99.90
30893;DHT22;17595;50.884;4.346;2024-01-30T11:20:30;12.80;99.90
30893;DHT22;17595;50.884;4.346;2024-01-30T11:23:01;12.90;99.90
30893;DHT22;17595;50.884;4.346;2024-01-30T11:25:32;12.70;99.90
30893;DHT22;17595;50.884;4.346;2024-01-30T11:27:58;12.70;99.90
30893;DHT22;17595;50.884;4.346;2024-01-30T11:30:28;12.80;99.90
30893;DHT22;17595;50.884;4.346;2024-01-30T11:33:02;12.80;99.90
30893;DHT22;17595;50.884;4.346;2024-01-30T11:38:07;12.90;99.90
30893;DHT22;17595;50.884;4.346;2024-01-30T11:40:35;12.70;99.90
30893;DHT22;17595;50.884;4.346;2024-01-30T11:43:02;12.70;99.90
30893;DHT22;17595;50.884;4.346;2024-01-30T11:45:28;12.70;99.90
30893;DHT22;17595;50.884;4.346;2024-01-30T11:47:54;12.60;99.90
30893;DHT22;17595;50.884;4.346;2024-01-30T11:50:21;12.80;99.90
30893;DHT22;17595;50.884;4.346;2024-01-30T11:52:47;12.80;99.90
30893;DHT22;17595;50.884;4.346;2024-01-30T11:55:14;12.90;99.90
30893;DHT22;17595;50.884;4.346;2024-01-30T11:57:40;12.90;99.90
30893;DHT22;17595;50.884;4.346;2024-01-30T12:00:13;12.80;99.90
30893;DHT22;17595;50.884;4.346;2024-01-30T12:02:40;12.70;99.90
30893;DHT22;17595;50.884;4.346;2024-01-30T12:05:06;12.80;99.90
30893;DHT22;17595;50.884;4.346;2024-01-30T12:07:36;12.80;99.90
30893;DHT22;17595;50.884;4.346;2024-01-30T12:10:02;12.90;99.90
30893;DHT22;17595;50.884;4.346;2024-01-30T12:12:28;13.00;99.90
30893;DHT22;17595;50.884;4.346;2024-01-30T12:14:55;13.10;99.90
30893;DHT22;17595;50.884;4.346;2024-01-30T12:20:05;13.30;99.90
30893;DHT22;17595;50.884;4.346;2024-01-30T12:22:35;13.30;99.90
30893;DHT22;17595;50.884;4.346;2024-01-30T12:25:01;13.20;99.90
30893;DHT22;17595;50.884;4.346;2024-01-30T12:27:27;13.10;99.90
30893;DHT22;17595;50.884;4.346;2024-01-30T12:29:57;13.30;99.90
30893;DHT22;17595;50.884;4.346;2024-01-30T12:32:23;13.30;99.90
30893;DHT22;17595;50.884;4.346;2024-01-30T12:34:49;13.40;99.90
30893;DHT22;17595;50.884;4.346;2024-01-30T12:37:15;13.50;99.90
30893;DHT22;17595;50.884;4.346;2024-01-30T12:39:47;13.40;99.90
30893;DHT22;17595;50.884;4.346;2024-01-30T12:42:13;13.40;99.90
30893;DHT22;17595;50.884;4.346;2024-01-30T12:44:39;13.40;99.90
30893;DHT22;17595;50.884;4.346;2024-01-30T12:47:05;13.50;99.90
30893;DHT22;17595;50.884;4.346;2024-01-30T12:49:31;13.40;99.90
30893;DHT22;17595;50.884;4.346;2024-01-30T12:51:58;13.30;99.90
30893;DHT22;17595;50.884;4.346;2024-01-30T12:54:23;13.30;99.90
30893;DHT22;17595;50.884;4.346;2024-01-30T12:56:49;13.10;99.90
30893;DHT22;17595;50.884;4.346;2024-01-30T12:59:15;13.00;99.90
30893;DHT22;17595;50.884;4.346;2024-01-30T13:01:41;12.90;99.90
30893;DHT22;17595;50.884;4.346;2024-01-30T13:04:07;12.70;99.90
30893;DHT22;17595;50.884;4.346;2024-01-30T13:06:33;12.50;99.90
30893;DHT22;17595;50.884;4.346;2024-01-30T13:08:58;12.20;99.90
30893;DHT22;17595;50.884;4.346;2024-01-30T13:11:24;12.20;99.90
30893;DHT22;17595;50.884;4.346;2024-01-30T13:13:51;12.30;99.90
30893;DHT22;17595;50.884;4.346;2024-01-30T13:16:17;12.40;99.90
30893;DHT22;17595;50.884;4.346;2024-01-30T13:18:43;12.30;99.90
30893;DHT22;17595;50.884;4.346;2024-01-30T13:21:09;12.20;99.90
30893;DHT22;17595;50.884;4.346;2024-01-30T13:23:35;12.30;99.90
30893;DHT22;17595;50.884;4.346;2024-01-30T13:26:01;12.30;99.90
30893;DHT22;17595;50.884;4.346;2024-01-30T13:28:26;12.30;99.90
30893;DHT22;17595;50.884;4.346;2024-01-30T13:30:52;12.40;99.90
30893;DHT22;17595;50.884;4.346;2024-01-30T13:33:18;12.50;99.90
30893;DHT22;17595;50.884;4.346;2024-01-30T13:35:43;12.70;99.90
30893;DHT22;17595;50.884;4.346;2024-01-30T13:38:09;12.70;99.90
30893;DHT22;17595;50.884;4.346;2024-01-30T13:40:35;12.60;99.90
30893;DHT22;17595;50.884;4.346;2024-01-30T13:43:01;12.60;99.90
30893;DHT22;17595;50.884;4.346;2024-01-30T13:45:27;12.60;99.90
30893;DHT22;17595;50.884;4.346;2024-01-30T13:47:53;12.60;99.90
30893;DHT22;17595;50.884;4.346;2024-01-30T13:50:18;12.60;99.90
30893;DHT22;17595;50.884;4.346;2024-01-30T13:52:44;12.80;99.90
30893;DHT22;17595;50.884;4.346;2024-01-30T13:55:10;12.90;99.90
30893;DHT22;17595;50.884;4.346;2024-01-30T13:57:36;12.60;99.90
30893;DHT22;17595;50.884;4.346;2024-01-30T14:00:03;12.40;99.90
30893;DHT22;17595;50.884;4.346;2024-01-30T14:02:32;12.30;99.90
30893;DHT22;17595;50.884;4.346;2024-01-30T14:04:58;12.20;99.90
30893;DHT22;17595;50.884;4.346;2024-01-30T14:07:24;12.00;99.90
30893;DHT22;17595;50.884;4.346;2024-01-30T14:09:50;11.90;99.90
30893;DHT22;17595;50.884;4.346;2024-01-30T14:12:16;11.80;99.90
30893;DHT22;17595;50.884;4.346;2024-01-30T14:14:41;11.80;99.90
30893;DHT22;17595;50.884;4.346;2024-01-30T14:17:07;11.80;99.90
30893;DHT22;17595;50.884;4.346;2024-01-30T14:19:34;11.80;99.90
30893;DHT22;17595;50.884;4.346;2024-01-30T14:22:00;11.90;99.90
30893;DHT22;17595;50.884;4.346;2024-01-30T14:24:26;12.00;99.90
30893;DHT22;17595;50.884;4.346;2024-01-30T14:26:53;12.10;99.90
30893;DHT22;17595;50.884;4.346;2024-01-30T14:29:19;12.10;99.90
30893;DHT22;17595;50.884;4.346;2024-01-30T14:31:45;12.20;99.90
30893;DHT22;17595;50.884;4.346;2024-01-30T14:34:10;11.90;99.90
30893;DHT22;17595;50.884;4.346;2024-01-30T14:36:39;11.60;99.90
30893;DHT22;17595;50.884;4.346;2024-01-30T14:39:05;11.50;99.90
30893;DHT22;17595;50.884;4.346;2024-01-30T14:41:32;11.50;99.90
30893;DHT22;17595;50.884;4.346;2024-01-30T14:43:58;11.50;99.90
30893;DHT22;17595;50.884;4.346;2024-01-30T14:46:25;11.50;99.90
30893;DHT22;17595;50.884;4.346;2024-01-30T14:48:52;11.30;99.90
30893;DHT22;17595;50.884;4.346;2024-01-30T14:51:18;11.40;99.90
30893;DHT22;17595;50.884;4.346;2024-01-30T14:53:44;11.50;99.90
30893;DHT22;17595;50.884;4.346;2024-01-30T14:56:10;11.40;99.90
30893;DHT22;17595;50.884;4.346;2024-01-30T14:58:36;11.40;99.90
30893;DHT22;17595;50.884;4.346;2024-01-30T15:01:02;11.40;99.90
30893;DHT22;17595;50.884;4.346;2024-01-30T15:03:28;11.30;99.90
30893;DHT22;17595;50.884;4.346;2024-01-30T15:05:57;11.30;99.90
30893;DHT22;17595;50.884;4.346;2024-01-30T15:08:23;11.30;99.90
30893;DHT22;17595;50.884;4.346;2024-01-30T15:10:49;11.30;99.90
30893;DHT22;17595;50.884;4.346;2024-01-30T15:13:16;11.40;99.90
30893;DHT22;17595;50.884;4.346;2024-01-30T15:15:42;11.60;99.90
30893;DHT22;17595;50.884;4.346;2024-01-30T15:18:08;11.60;99.90
30893;DHT22;17595;50.884;4.346;2024-01-30T15:20:36;11.70;99.90
30893;DHT22;17595;50.884;4.346;2024-01-30T15:23:02;11.60;99.90
30893;DHT22;17595;50.884;4.346;2024-01-30T15:25:28;11.60;99.90
30893;DHT22;17595;50.884;4.346;2024-01-30T15:27:54;11.50;99.90
30893;DHT22;17595;50.884;4.346;2024-01-30T15:30:20;11.50;99.90
30893;DHT22;17595;50.884;4.346;2024-01-30T15:32:46;11.40;99.90